sensor_id;sensor_type;location;lat;lon;timestamp;temperature;humidity
22645;DHT22;11489;50.834;6.752;2022-12-20T00:01:23;11.20;91.60
22645;DHT22;11489;50.834;6.752;2022-12-20T00:03:50;11.20;91.50
22645;DHT22;11489;50.834;6.752;2022-12-20T00:06:16;11.20;91.60
22645;DHT22;11489;50.834;6.752;2022-12-20T00:08:42;11.10;91.50
22645;DHT22;11489;50.834;6.752;2022-12-20T00:11:08;11.10;91.50
22645;DHT22;11489;50.834;6.752;2022-12-20T00:13:35;11.10;91.60
22645;DHT22;11489;50.834;6.752;2022-12-20T00:16:13;11.10;91.50
22645;DHT22;11489;50.834;6.752;2022-12-20T00:18:40;11.10;91.30
22645;DHT22;11489;50.834;6.752;2022-12-20T00:21:09;11.00;91.60
22645;DHT22;11489;50.834;6.752;2022-12-20T00:23:36;11.00;91.70
22645;DHT22;11489;50.834;6.752;2022-12-20T00:26:13;11.00;91.70
22645;DHT22;11489;50.834;6.752;2022-12-20T00:28:40;11.00;91.50
22645;DHT22;11489;50.834;6.752;2022-12-20T00:31:08;10.90;91.80
22645;DHT22;11489;50.834;6.752;2022-12-20T00:33:35;10.90;91.80
22645;DHT22;11489;50.834;6.752;2022-12-20T00:36:03;10.90;91.80
22645;DHT22;11489;50.834;6.752;2022-12-20T00:38:29;10.90;91.90
22645;DHT22;11489;50.834;6.752;2022-12-20T00:41:25;10.90;91.90
22645;DHT22;11489;50.834;6.752;2022-12-20T00:43:52;10.90;91.30
22645;DHT22;11489;50.834;6.752;2022-12-20T00:46:19;10.90;92.00
22645;DHT22;11489;50.834;6.752;2022-12-20T00:48:45;10.90;92.10
22645;DHT22;11489;50.834;6.752;2022-12-20T00:51:19;10.90;92.10
22645;DHT22;11489;50.834;6.752;2022-12-20T00:53:45;11.00;92.10
22645;DHT22;11489;50.834;6.752;2022-12-20T00:56:11;11.00;92.20
22645;DHT22;11489;50.834;6.752;2022-12-20T00:58:39;11.00;92.20
22645;DHT22;11489;50.834;6.752;2022-12-20T01:01:06;11.10;92.20
22645;DHT22;11489;50.834;6.752;2022-12-20T01:03:38;11.10;92.20
22645;DHT22;11489;50.834;6.752;2022-12-20T01:06:04;11.10;92.20
22645;DHT22;11489;50.834;6.752;2022-12-20T01:08:30;11.10;92.10
22645;DHT22;11489;50.834;6.752;2022-12-20T01:11:08;11.20;92.00
22645;DHT22;11489;50.834;6.752;2022-12-20T01:13:36;11.20;91.90
22645;DHT22;11489;50.834;6.752;2022-12-20T01:16:07;11.20;91.90
22645;DHT22;11489;50.834;6.752;2022-12-20T01:18:33;11.20;92.00
22645;DHT22;11489;50.834;6.752;2022-12-20T01:21:01;11.20;92.00
22645;DHT22;11489;50.834;6.752;2022-12-20T01:23:26;11.20;91.90
22645;DHT22;11489;50.834;6.752;2022-12-20T01:25:52;11.20;91.90
22645;DHT22;11489;50.834;6.752;2022-12-20T01:28:18;11.20;91.90
22645;DHT22;11489;50.834;6.752;2022-12-20T01:30:43;11.30;91.90
22645;DHT22;11489;50.834;6.752;2022-12-20T01:33:09;11.30;91.90
22645;DHT22;11489;50.834;6.752;2022-12-20T01:35:35;11.20;91.80
22645;DHT22;11489;50.834;6.752;2022-12-20T01:38:00;11.30;91.80
22645;DHT22;11489;50.834;6.752;2022-12-20T01:40:26;11.30;91.80
22645;DHT22;11489;50.834;6.752;2022-12-20T01:42:52;11.30;91.90
22645;DHT22;11489;50.834;6.752;2022-12-20T01:45:28;11.30;91.90
22645;DHT22;11489;50.834;6.752;2022-12-20T01:47:56;11.30;91.80
22645;DHT22;11489;50.834;6.752;2022-12-20T01:50:23;11.30;91.90
22645;DHT22;11489;50.834;6.752;2022-12-20T01:52:51;11.30;91.80
22645;DHT22;11489;50.834;6.752;2022-12-20T01:55:23;11.30;91.80
22645;DHT22;11489;50.834;6.752;2022-12-20T02:00:26;11.30;91.50
22645;DHT22;11489;50.834;6.752;2022-12-20T02:02:53;11.30;91.60
22645;DHT22;11489;50.834;6.752;2022-12-20T02:05:21;11.20;91.60
22645;DHT22;11489;50.834;6.752;2022-12-20T02:07:50;11.20;91.60
22645;DHT22;11489;50.834;6.752;2022-12-20T02:10:18;11.20;91.60
22645;DHT22;11489;50.834;6.752;2022-12-20T02:12:46;11.20;91.60
22645;DHT22;11489;50.834;6.752;2022-12-20T02:15:29;11.20;91.70
22645;DHT22;11489;50.834;6.752;2022-12-20T02:26:47;11.10;91.10
22645;DHT22;11489;50.834;6.752;2022-12-20T02:29:20;11.00;91.20
22645;DHT22;11489;50.834;6.752;2022-12-20T02:32:22;11.10;91.70
22645;DHT22;11489;50.834;6.752;2022-12-20T02:34:49;11.00;91.20
22645;DHT22;11489;50.834;6.752;2022-12-20T02:37:15;11.00;91.80
22645;DHT22;11489;50.834;6.752;2022-12-20T02:39:41;11.00;91.90
22645;DHT22;11489;50.834;6.752;2022-12-20T02:42:14;11.00;91.80
22645;DHT22;11489;50.834;6.752;2022-12-20T02:44:52;11.00;91.80
22645;DHT22;11489;50.834;6.752;2022-12-20T02:47:51;11.00;91.60
22645;DHT22;11489;50.834;6.752;2022-12-20T02:50:38;11.00;91.40
22645;DHT22;11489;50.834;6.752;2022-12-20T02:53:06;11.00;91.20
22645;DHT22;11489;50.834;6.752;2022-12-20T02:56:02;11.00;91.70
22645;DHT22;11489;50.834;6.752;2022-12-20T02:58:37;10.90;91.10
22645;DHT22;11489;50.834;6.752;2022-12-20T03:01:11;10.90;91.60
22645;DHT22;11489;50.834;6.752;2022-12-20T03:03:38;10.90;91.50
22645;DHT22;11489;50.834;6.752;2022-12-20T03:06:05;10.80;91.60
22645;DHT22;11489;50.834;6.752;2022-12-20T03:08:30;10.80;91.60
22645;DHT22;11489;50.834;6.752;2022-12-20T03:10:56;10.80;91.60
22645;DHT22;11489;50.834;6.752;2022-12-20T03:13:23;10.80;91.70
22645;DHT22;11489;50.834;6.752;2022-12-20T03:15:50;10.70;91.70
22645;DHT22;11489;50.834;6.752;2022-12-20T03:18:15;10.70;91.70
22645;DHT22;11489;50.834;6.752;2022-12-20T03:20:41;10.70;91.70
22645;DHT22;11489;50.834;6.752;2022-12-20T03:23:07;10.70;91.80
22645;DHT22;11489;50.834;6.752;2022-12-20T03:25:33;10.60;91.80
22645;DHT22;11489;50.834;6.752;2022-12-20T03:27:59;10.60;91.80
22645;DHT22;11489;50.834;6.752;2022-12-20T03:30:24;10.60;91.80
22645;DHT22;11489;50.834;6.752;2022-12-20T03:32:50;10.60;91.90
22645;DHT22;11489;50.834;6.752;2022-12-20T03:35:16;10.60;91.90
22645;DHT22;11489;50.834;6.752;2022-12-20T03:37:41;10.60;91.90
22645;DHT22;11489;50.834;6.752;2022-12-20T03:40:08;10.60;91.90
22645;DHT22;11489;50.834;6.752;2022-12-20T03:42:34;10.60;91.90
22645;DHT22;11489;50.834;6.752;2022-12-20T03:45:00;10.60;91.90
22645;DHT22;11489;50.834;6.752;2022-12-20T03:47:26;10.60;91.90
22645;DHT22;11489;50.834;6.752;2022-12-20T03:49:51;10.50;91.90
22645;DHT22;11489;50.834;6.752;2022-12-20T03:52:17;10.50;91.90
22645;DHT22;11489;50.834;6.752;2022-12-20T03:54:43;10.50;91.90
22645;DHT22;11489;50.834;6.752;2022-12-20T03:57:08;10.50;91.80
22645;DHT22;11489;50.834;6.752;2022-12-20T03:59:34;10.50;91.90
22645;DHT22;11489;50.834;6.752;2022-12-20T04:02:00;10.50;91.90
22645;DHT22;11489;50.834;6.752;2022-12-20T04:04:26;10.40;91.90
22645;DHT22;11489;50.834;6.752;2022-12-20T04:06:52;10.40;91.90
22645;DHT22;11489;50.834;6.752;2022-12-20T04:09:18;10.40;91.90
22645;DHT22;11489;50.834;6.752;2022-12-20T04:11:43;10.40;91.90
22645;DHT22;11489;50.834;6.752;2022-12-20T04:14:09;10.40;91.90
22645;DHT22;11489;50.834;6.752;2022-12-20T04:16:35;10.40;92.00
22645;DHT22;11489;50.834;6.752;2022-12-20T04:19:00;10.30;92.00
22645;DHT22;11489;50.834;6.752;2022-12-20T04:21:31;10.30;92.10
22645;DHT22;11489;50.834;6.752;2022-12-20T04:23:58;10.30;92.00
22645;DHT22;11489;50.834;6.752;2022-12-20T04:26:25;10.30;92.00
22645;DHT22;11489;50.834;6.752;2022-12-20T04:28:51;10.30;92.00
22645;DHT22;11489;50.834;6.752;2022-12-20T04:31:16;10.20;91.90
22645;DHT22;11489;50.834;6.752;2022-12-20T04:33:42;10.20;91.90
22645;DHT22;11489;50.834;6.752;2022-12-20T04:36:08;10.10;92.20
22645;DHT22;11489;50.834;6.752;2022-12-20T04:38:34;10.10;91.90
22645;DHT22;11489;50.834;6.752;2022-12-20T04:41:00;10.10;91.90
22645;DHT22;11489;50.834;6.752;2022-12-20T04:43:25;10.10;91.90
22645;DHT22;11489;50.834;6.752;2022-12-20T04:45:53;10.00;91.90
22645;DHT22;11489;50.834;6.752;2022-12-20T04:48:23;10.00;92.00
22645;DHT22;11489;50.834;6.752;2022-12-20T04:50:52;9.90;92.00
22645;DHT22;11489;50.834;6.752;2022-12-20T04:53:18;9.90;92.00
22645;DHT22;11489;50.834;6.752;2022-12-20T04:56:03;9.90;92.10
22645;DHT22;11489;50.834;6.752;2022-12-20T04:58:29;9.90;92.20
22645;DHT22;11489;50.834;6.752;2022-12-20T05:00:55;9.90;92.30
22645;DHT22;11489;50.834;6.752;2022-12-20T05:03:23;9.90;92.40
22645;DHT22;11489;50.834;6.752;2022-12-20T05:05:49;9.90;92.80
22645;DHT22;11489;50.834;6.752;2022-12-20T05:08:15;9.90;92.50
22645;DHT22;11489;50.834;6.752;2022-12-20T05:10:41;9.90;92.50
22645;DHT22;11489;50.834;6.752;2022-12-20T05:13:07;10.00;92.50
22645;DHT22;11489;50.834;6.752;2022-12-20T05:15:33;10.00;92.50
22645;DHT22;11489;50.834;6.752;2022-12-20T05:17:59;10.00;92.50
22645;DHT22;11489;50.834;6.752;2022-12-20T05:20:26;10.00;92.50
22645;DHT22;11489;50.834;6.752;2022-12-20T05:22:51;10.00;92.60
22645;DHT22;11489;50.834;6.752;2022-12-20T05:25:43;10.00;92.60
22645;DHT22;11489;50.834;6.752;2022-12-20T05:28:28;10.00;92.50
22645;DHT22;11489;50.834;6.752;2022-12-20T05:30:54;10.10;92.60
22645;DHT22;11489;50.834;6.752;2022-12-20T05:33:20;10.10;92.60
22645;DHT22;11489;50.834;6.752;2022-12-20T05:35:46;10.10;92.60
22645;DHT22;11489;50.834;6.752;2022-12-20T05:38:12;10.10;92.60
22645;DHT22;11489;50.834;6.752;2022-12-20T05:40:38;10.20;92.50
22645;DHT22;11489;50.834;6.752;2022-12-20T05:43:04;10.20;92.50
22645;DHT22;11489;50.834;6.752;2022-12-20T05:45:31;10.20;92.40
22645;DHT22;11489;50.834;6.752;2022-12-20T05:47:56;10.20;92.40
22645;DHT22;11489;50.834;6.752;2022-12-20T05:50:22;10.20;92.40
22645;DHT22;11489;50.834;6.752;2022-12-20T05:52:48;10.20;92.30
22645;DHT22;11489;50.834;6.752;2022-12-20T05:55:14;10.10;92.30
22645;DHT22;11489;50.834;6.752;2022-12-20T05:57:39;10.20;92.40
22645;DHT22;11489;50.834;6.752;2022-12-20T06:00:06;10.10;92.40
22645;DHT22;11489;50.834;6.752;2022-12-20T06:02:31;10.10;92.40
22645;DHT22;11489;50.834;6.752;2022-12-20T06:04:57;10.10;92.40
22645;DHT22;11489;50.834;6.752;2022-12-20T06:07:24;10.10;92.40
22645;DHT22;11489;50.834;6.752;2022-12-20T06:09:50;10.20;92.40
22645;DHT22;11489;50.834;6.752;2022-12-20T06:12:16;10.20;92.50
22645;DHT22;11489;50.834;6.752;2022-12-20T06:14:42;10.20;92.50
22645;DHT22;11489;50.834;6.752;2022-12-20T06:17:07;10.20;92.50
22645;DHT22;11489;50.834;6.752;2022-12-20T06:19:33;10.20;92.50
22645;DHT22;11489;50.834;6.752;2022-12-20T06:21:59;10.20;92.60
22645;DHT22;11489;50.834;6.752;2022-12-20T06:24:25;10.20;92.60
22645;DHT22;11489;50.834;6.752;2022-12-20T06:26:52;10.20;92.60
22645;DHT22;11489;50.834;6.752;2022-12-20T06:29:17;10.30;92.70
22645;DHT22;11489;50.834;6.752;2022-12-20T06:31:45;10.30;92.60
22645;DHT22;11489;50.834;6.752;2022-12-20T06:34:12;10.30;92.60
22645;DHT22;11489;50.834;6.752;2022-12-20T06:36:38;10.30;92.50
22645;DHT22;11489;50.834;6.752;2022-12-20T06:39:03;10.30;92.50
22645;DHT22;11489;50.834;6.752;2022-12-20T06:41:29;10.30;92.40
22645;DHT22;11489;50.834;6.752;2022-12-20T06:43:55;10.30;92.40
22645;DHT22;11489;50.834;6.752;2022-12-20T06:46:20;10.40;92.40
22645;DHT22;11489;50.834;6.752;2022-12-20T06:48:46;10.40;92.40
22645;DHT22;11489;50.834;6.752;2022-12-20T06:51:12;10.40;92.40
22645;DHT22;11489;50.834;6.752;2022-12-20T06:53:37;10.40;92.40
22645;DHT22;11489;50.834;6.752;2022-12-20T06:56:03;10.40;92.40
22645;DHT22;11489;50.834;6.752;2022-12-20T06:58:29;10.40;92.50
22645;DHT22;11489;50.834;6.752;2022-12-20T07:00:55;10.40;92.50
22645;DHT22;11489;50.834;6.752;2022-12-20T07:03:20;10.40;92.40
22645;DHT22;11489;50.834;6.752;2022-12-20T07:05:51;10.40;92.60
22645;DHT22;11489;50.834;6.752;2022-12-20T07:08:18;10.50;92.20
22645;DHT22;11489;50.834;6.752;2022-12-20T07:10:44;10.40;92.30
22645;DHT22;11489;50.834;6.752;2022-12-20T07:13:10;10.40;92.30
22645;DHT22;11489;50.834;6.752;2022-12-20T07:15:35;10.40;92.30
22645;DHT22;11489;50.834;6.752;2022-12-20T07:18:01;10.40;92.30
22645;DHT22;11489;50.834;6.752;2022-12-20T07:20:28;10.40;92.30
22645;DHT22;11489;50.834;6.752;2022-12-20T07:22:54;10.40;92.40
22645;DHT22;11489;50.834;6.752;2022-12-20T07:25:20;10.40;92.40
22645;DHT22;11489;50.834;6.752;2022-12-20T07:27:47;10.40;92.40
22645;DHT22;11489;50.834;6.752;2022-12-20T07:30:15;10.40;92.40
22645;DHT22;11489;50.834;6.752;2022-12-20T07:32:41;10.50;92.50
22645;DHT22;11489;50.834;6.752;2022-12-20T07:35:08;10.50;92.50
22645;DHT22;11489;50.834;6.752;2022-12-20T07:37:35;10.50;92.50
22645;DHT22;11489;50.834;6.752;2022-12-20T07:40:00;10.50;92.50
22645;DHT22;11489;50.834;6.752;2022-12-20T07:42:26;10.60;92.50
22645;DHT22;11489;50.834;6.752;2022-12-20T07:44:52;10.60;92.50
22645;DHT22;11489;50.834;6.752;2022-12-20T07:47:18;10.60;92.50
22645;DHT22;11489;50.834;6.752;2022-12-20T07:49:43;10.60;92.50
22645;DHT22;11489;50.834;6.752;2022-12-20T07:52:11;10.60;92.50
22645;DHT22;11489;50.834;6.752;2022-12-20T07:54:42;10.70;92.50
22645;DHT22;11489;50.834;6.752;2022-12-20T07:57:14;10.70;92.40
22645;DHT22;11489;50.834;6.752;2022-12-20T07:59:46;10.80;92.40
22645;DHT22;11489;50.834;6.752;2022-12-20T08:02:16;10.80;92.40
22645;DHT22;11489;50.834;6.752;2022-12-20T08:04:43;10.80;92.40
22645;DHT22;11489;50.834;6.752;2022-12-20T08:07:09;10.80;92.40
22645;DHT22;11489;50.834;6.752;2022-12-20T08:09:39;10.80;92.40
22645;DHT22;11489;50.834;6.752;2022-12-20T08:12:07;10.90;92.40
22645;DHT22;11489;50.834;6.752;2022-12-20T08:14:35;10.90;92.40
22645;DHT22;11489;50.834;6.752;2022-12-20T08:17:01;11.00;92.60
22645;DHT22;11489;50.834;6.752;2022-12-20T08:19:27;11.00;92.60
22645;DHT22;11489;50.834;6.752;2022-12-20T08:21:52;11.00;92.60
22645;DHT22;11489;50.834;6.752;2022-12-20T08:24:18;11.10;92.60
22645;DHT22;11489;50.834;6.752;2022-12-20T08:26:44;11.10;92.50
22645;DHT22;11489;50.834;6.752;2022-12-20T08:29:10;11.20;92.50
22645;DHT22;11489;50.834;6.752;2022-12-20T08:31:40;11.20;92.50
22645;DHT22;11489;50.834;6.752;2022-12-20T08:34:08;11.30;92.40
22645;DHT22;11489;50.834;6.752;2022-12-20T08:36:34;11.30;92.40
22645;DHT22;11489;50.834;6.752;2022-12-20T08:39:04;11.40;92.40
22645;DHT22;11489;50.834;6.752;2022-12-20T08:41:32;11.40;92.20
22645;DHT22;11489;50.834;6.752;2022-12-20T08:43:58;11.40;92.30
22645;DHT22;11489;50.834;6.752;2022-12-20T08:46:23;11.50;92.30
22645;DHT22;11489;50.834;6.752;2022-12-20T08:48:49;11.50;92.20
22645;DHT22;11489;50.834;6.752;2022-12-20T08:51:15;11.50;92.20
22645;DHT22;11489;50.834;6.752;2022-12-20T08:53:40;11.50;92.10
22645;DHT22;11489;50.834;6.752;2022-12-20T08:56:12;11.50;92.00
22645;DHT22;11489;50.834;6.752;2022-12-20T08:58:39;11.50;91.80
22645;DHT22;11489;50.834;6.752;2022-12-20T09:01:07;11.50;91.90
22645;DHT22;11489;50.834;6.752;2022-12-20T09:03:33;11.50;91.80
22645;DHT22;11489;50.834;6.752;2022-12-20T09:05:59;11.50;91.80
22645;DHT22;11489;50.834;6.752;2022-12-20T09:08:25;11.40;91.70
22645;DHT22;11489;50.834;6.752;2022-12-20T09:10:51;11.50;91.70
22645;DHT22;11489;50.834;6.752;2022-12-20T09:13:17;11.40;91.60
22645;DHT22;11489;50.834;6.752;2022-12-20T09:15:43;11.40;91.60
22645;DHT22;11489;50.834;6.752;2022-12-20T09:18:09;11.30;91.60
22645;DHT22;11489;50.834;6.752;2022-12-20T09:20:40;11.30;91.60
22645;DHT22;11489;50.834;6.752;2022-12-20T09:23:06;11.20;91.70
22645;DHT22;11489;50.834;6.752;2022-12-20T09:25:32;11.20;91.80
22645;DHT22;11489;50.834;6.752;2022-12-20T09:27:58;11.20;91.80
22645;DHT22;11489;50.834;6.752;2022-12-20T09:30:23;11.20;91.90
22645;DHT22;11489;50.834;6.752;2022-12-20T09:32:49;11.20;91.90
22645;DHT22;11489;50.834;6.752;2022-12-20T09:35:15;11.20;91.90
22645;DHT22;11489;50.834;6.752;2022-12-20T09:37:40;11.20;92.00
22645;DHT22;11489;50.834;6.752;2022-12-20T09:40:08;11.20;92.00
22645;DHT22;11489;50.834;6.752;2022-12-20T09:42:38;11.20;91.90
22645;DHT22;11489;50.834;6.752;2022-12-20T09:45:08;11.20;92.00
22645;DHT22;11489;50.834;6.752;2022-12-20T09:47:37;11.30;91.90
22645;DHT22;11489;50.834;6.752;2022-12-20T09:50:05;11.30;92.10
22645;DHT22;11489;50.834;6.752;2022-12-20T09:53:02;11.30;92.10
22645;DHT22;11489;50.834;6.752;2022-12-20T09:55:52;11.30;91.60
22645;DHT22;11489;50.834;6.752;2022-12-20T09:58:58;11.40;92.10
22645;DHT22;11489;50.834;6.752;2022-12-20T10:01:26;11.40;91.50
22645;DHT22;11489;50.834;6.752;2022-12-20T10:03:53;11.40;92.10
22645;DHT22;11489;50.834;6.752;2022-12-20T10:06:43;11.40;92.10
22645;DHT22;11489;50.834;6.752;2022-12-20T10:12:42;11.50;91.50
22645;DHT22;11489;50.834;6.752;2022-12-20T10:15:13;11.50;91.70
22645;DHT22;11489;50.834;6.752;2022-12-20T10:23:29;11.60;91.70
22645;DHT22;11489;50.834;6.752;2022-12-20T10:25:58;11.60;91.90
22645;DHT22;11489;50.834;6.752;2022-12-20T10:28:29;11.60;92.10
22645;DHT22;11489;50.834;6.752;2022-12-20T10:31:01;11.70;91.90
22645;DHT22;11489;50.834;6.752;2022-12-20T10:33:29;11.70;91.90
22645;DHT22;11489;50.834;6.752;2022-12-20T10:38:59;11.70;91.60
22645;DHT22;11489;50.834;6.752;2022-12-20T10:41:52;11.70;91.70
22645;DHT22;11489;50.834;6.752;2022-12-20T10:44:22;11.80;91.80
22645;DHT22;11489;50.834;6.752;2022-12-20T10:46:59;11.80;91.90
22645;DHT22;11489;50.834;6.752;2022-12-20T10:49:34;11.80;91.60
22645;DHT22;11489;50.834;6.752;2022-12-20T10:52:09;11.90;91.70
22645;DHT22;11489;50.834;6.752;2022-12-20T10:54:41;11.80;91.80
22645;DHT22;11489;50.834;6.752;2022-12-20T10:57:19;11.80;91.70
22645;DHT22;11489;50.834;6.752;2022-12-20T10:59:51;11.90;91.40
22645;DHT22;11489;50.834;6.752;2022-12-20T11:02:28;11.90;91.70
22645;DHT22;11489;50.834;6.752;2022-12-20T11:05:00;11.90;91.60
22645;DHT22;11489;50.834;6.752;2022-12-20T11:07:28;11.90;91.60
22645;DHT22;11489;50.834;6.752;2022-12-20T11:09:57;11.90;91.80
22645;DHT22;11489;50.834;6.752;2022-12-20T11:12:23;11.90;91.90
22645;DHT22;11489;50.834;6.752;2022-12-20T11:14:49;11.90;92.00
22645;DHT22;11489;50.834;6.752;2022-12-20T11:17:45;12.00;92.00
22645;DHT22;11489;50.834;6.752;2022-12-20T11:20:47;12.10;91.60
22645;DHT22;11489;50.834;6.752;2022-12-20T11:32:07;12.30;91.60
22645;DHT22;11489;50.834;6.752;2022-12-20T11:37:21;12.40;91.60
22645;DHT22;11489;50.834;6.752;2022-12-20T11:40:05;12.50;91.40
22645;DHT22;11489;50.834;6.752;2022-12-20T11:42:47;12.60;91.10
22645;DHT22;11489;50.834;6.752;2022-12-20T11:45:40;12.60;91.70
22645;DHT22;11489;50.834;6.752;2022-12-20T11:53:55;12.80;91.50
22645;DHT22;11489;50.834;6.752;2022-12-20T11:56:24;12.80;91.10
22645;DHT22;11489;50.834;6.752;2022-12-20T11:58:54;12.70;91.30
22645;DHT22;11489;50.834;6.752;2022-12-20T12:01:30;12.70;91.10
22645;DHT22;11489;50.834;6.752;2022-12-20T12:04:03;12.80;91.00
22645;DHT22;11489;50.834;6.752;2022-12-20T12:06:38;12.80;91.10
22645;DHT22;11489;50.834;6.752;2022-12-20T12:09:21;12.70;90.90
22645;DHT22;11489;50.834;6.752;2022-12-20T12:12:10;12.80;90.80
22645;DHT22;11489;50.834;6.752;2022-12-20T12:17:41;12.80;90.40
22645;DHT22;11489;50.834;6.752;2022-12-20T12:20:30;12.70;90.90
22645;DHT22;11489;50.834;6.752;2022-12-20T12:23:04;12.70;90.40
22645;DHT22;11489;50.834;6.752;2022-12-20T12:25:31;12.70;90.70
22645;DHT22;11489;50.834;6.752;2022-12-20T12:27:57;12.60;90.80
22645;DHT22;11489;50.834;6.752;2022-12-20T12:30:23;12.60;90.80
22645;DHT22;11489;50.834;6.752;2022-12-20T12:32:57;12.50;90.80
22645;DHT22;11489;50.834;6.752;2022-12-20T12:35:43;12.50;90.70
22645;DHT22;11489;50.834;6.752;2022-12-20T12:38:33;12.50;90.60
22645;DHT22;11489;50.834;6.752;2022-12-20T12:43:56;12.60;90.80
22645;DHT22;11489;50.834;6.752;2022-12-20T12:46:28;12.60;90.90
22645;DHT22;11489;50.834;6.752;2022-12-20T12:49:27;12.60;91.10
22645;DHT22;11489;50.834;6.752;2022-12-20T12:51:55;12.60;90.70
22645;DHT22;11489;50.834;6.752;2022-12-20T12:54:25;12.60;91.00
22645;DHT22;11489;50.834;6.752;2022-12-20T12:56:53;12.60;91.10
22645;DHT22;11489;50.834;6.752;2022-12-20T12:59:40;12.60;91.10
22645;DHT22;11489;50.834;6.752;2022-12-20T13:05:28;12.70;90.80
22645;DHT22;11489;50.834;6.752;2022-12-20T13:07:45;12.70;90.30
22645;DHT22;11489;50.834;6.752;2022-12-20T13:17:51;12.70;90.20
22645;DHT22;11489;50.834;6.752;2022-12-20T13:25:36;12.60;90.20
22645;DHT22;11489;50.834;6.752;2022-12-20T13:33:23;12.70;90.80
22645;DHT22;11489;50.834;6.752;2022-12-20T13:36:01;12.60;91.10
22645;DHT22;11489;50.834;6.752;2022-12-20T13:49:17;12.80;90.70
22645;DHT22;11489;50.834;6.752;2022-12-20T13:51:45;12.80;90.60
22645;DHT22;11489;50.834;6.752;2022-12-20T13:54:17;12.80;90.60
22645;DHT22;11489;50.834;6.752;2022-12-20T13:56:47;12.80;90.30
22645;DHT22;11489;50.834;6.752;2022-12-20T14:01:49;12.70;90.40
22645;DHT22;11489;50.834;6.752;2022-12-20T14:04:17;12.70;90.10
22645;DHT22;11489;50.834;6.752;2022-12-20T14:06:43;12.60;90.40
22645;DHT22;11489;50.834;6.752;2022-12-20T14:12:14;12.60;89.40
22645;DHT22;11489;50.834;6.752;2022-12-20T14:14:44;12.50;90.00
22645;DHT22;11489;50.834;6.752;2022-12-20T14:17:27;12.50;90.20
22645;DHT22;11489;50.834;6.752;2022-12-20T14:22:53;12.40;89.30
22645;DHT22;11489;50.834;6.752;2022-12-20T14:28:08;12.30;89.60
22645;DHT22;11489;50.834;6.752;2022-12-20T14:30:41;12.20;90.40
22645;DHT22;11489;50.834;6.752;2022-12-20T14:33:18;12.20;90.40
22645;DHT22;11489;50.834;6.752;2022-12-20T14:35:47;12.10;90.10
22645;DHT22;11489;50.834;6.752;2022-12-20T14:38:23;12.10;90.60
22645;DHT22;11489;50.834;6.752;2022-12-20T14:40:48;12.10;90.40
22645;DHT22;11489;50.834;6.752;2022-12-20T14:43:20;12.00;90.60
22645;DHT22;11489;50.834;6.752;2022-12-20T14:45:48;12.00;90.60
22645;DHT22;11489;50.834;6.752;2022-12-20T14:48:15;12.00;90.60
22645;DHT22;11489;50.834;6.752;2022-12-20T14:50:50;12.00;90.60
22645;DHT22;11489;50.834;6.752;2022-12-20T14:53:23;12.00;90.40
22645;DHT22;11489;50.834;6.752;2022-12-20T14:55:52;12.00;90.70
22645;DHT22;11489;50.834;6.752;2022-12-20T14:58:27;12.00;90.70
22645;DHT22;11489;50.834;6.752;2022-12-20T15:01:00;12.00;90.50
22645;DHT22;11489;50.834;6.752;2022-12-20T15:03:27;11.90;90.50
22645;DHT22;11489;50.834;6.752;2022-12-20T15:05:58;11.90;90.60
22645;DHT22;11489;50.834;6.752;2022-12-20T15:08:29;11.90;90.40
22645;DHT22;11489;50.834;6.752;2022-12-20T15:11:11;11.90;90.60
22645;DHT22;11489;50.834;6.752;2022-12-20T15:13:44;11.90;90.30
22645;DHT22;11489;50.834;6.752;2022-12-20T15:16:19;11.80;90.50
22645;DHT22;11489;50.834;6.752;2022-12-20T15:18:46;11.80;90.50
22645;DHT22;11489;50.834;6.752;2022-12-20T15:21:24;11.80;90.60
22645;DHT22;11489;50.834;6.752;2022-12-20T15:23:53;11.70;90.60
22645;DHT22;11489;50.834;6.752;2022-12-20T15:26:21;11.70;90.70
22645;DHT22;11489;50.834;6.752;2022-12-20T15:28:47;11.70;90.70
22645;DHT22;11489;50.834;6.752;2022-12-20T15:31:16;11.70;90.70
22645;DHT22;11489;50.834;6.752;2022-12-20T15:33:43;11.60;90.50
22645;DHT22;11489;50.834;6.752;2022-12-20T15:36:17;11.60;90.50
22645;DHT22;11489;50.834;6.752;2022-12-20T15:38:43;11.50;90.40
22645;DHT22;11489;50.834;6.752;2022-12-20T15:43:42;11.40;90.50
22645;DHT22;11489;50.834;6.752;2022-12-20T15:46:08;11.40;90.60
22645;DHT22;11489;50.834;6.752;2022-12-20T15:48:34;11.30;90.60
22645;DHT22;11489;50.834;6.752;2022-12-20T15:50:59;11.20;90.70
22645;DHT22;11489;50.834;6.752;2022-12-20T15:53:29;11.20;90.80
22645;DHT22;11489;50.834;6.752;2022-12-20T15:55:56;11.20;90.90
22645;DHT22;11489;50.834;6.752;2022-12-20T15:58:23;11.10;90.90
22645;DHT22;11489;50.834;6.752;2022-12-20T16:00:50;11.10;91.00
22645;DHT22;11489;50.834;6.752;2022-12-20T16:03:29;11.00;91.00
22645;DHT22;11489;50.834;6.752;2022-12-20T16:05:55;11.00;90.90
22645;DHT22;11489;50.834;6.752;2022-12-20T16:08:22;11.00;91.10
22645;DHT22;11489;50.834;6.752;2022-12-20T16:10:50;11.00;91.20
22645;DHT22;11489;50.834;6.752;2022-12-20T16:13:21;10.90;91.20
22645;DHT22;11489;50.834;6.752;2022-12-20T16:15:47;11.00;91.20
22645;DHT22;11489;50.834;6.752;2022-12-20T16:18:13;10.90;91.30
22645;DHT22;11489;50.834;6.752;2022-12-20T16:20:38;10.90;91.40
22645;DHT22;11489;50.834;6.752;2022-12-20T16:23:07;10.90;91.40
22645;DHT22;11489;50.834;6.752;2022-12-20T16:25:36;10.90;91.40
22645;DHT22;11489;50.834;6.752;2022-12-20T16:28:02;10.90;91.40
22645;DHT22;11489;50.834;6.752;2022-12-20T16:30:28;10.90;91.40
22645;DHT22;11489;50.834;6.752;2022-12-20T16:32:53;10.90;91.50
22645;DHT22;11489;50.834;6.752;2022-12-20T16:35:32;10.90;91.50
22645;DHT22;11489;50.834;6.752;2022-12-20T16:37:58;10.80;91.40
22645;DHT22;11489;50.834;6.752;2022-12-20T16:40:27;10.90;91.50
22645;DHT22;11489;50.834;6.752;2022-12-20T16:42:54;10.80;91.50
22645;DHT22;11489;50.834;6.752;2022-12-20T16:45:28;10.90;91.50
22645;DHT22;11489;50.834;6.752;2022-12-20T16:47:54;10.80;91.50
22645;DHT22;11489;50.834;6.752;2022-12-20T16:50:23;10.80;91.50
22645;DHT22;11489;50.834;6.752;2022-12-20T16:52:49;10.80;91.50
22645;DHT22;11489;50.834;6.752;2022-12-20T16:55:24;10.80;91.50
22645;DHT22;11489;50.834;6.752;2022-12-20T16:57:50;10.80;91.40
22645;DHT22;11489;50.834;6.752;2022-12-20T17:00:19;10.80;91.60
22645;DHT22;11489;50.834;6.752;2022-12-20T17:02:45;10.80;91.60
22645;DHT22;11489;50.834;6.752;2022-12-20T17:07:45;10.80;91.50
22645;DHT22;11489;50.834;6.752;2022-12-20T17:10:10;10.80;91.70
22645;DHT22;11489;50.834;6.752;2022-12-20T17:12:36;10.80;91.70
22645;DHT22;11489;50.834;6.752;2022-12-20T17:15:02;10.80;91.70
22645;DHT22;11489;50.834;6.752;2022-12-20T17:17:29;10.80;91.70
22645;DHT22;11489;50.834;6.752;2022-12-20T17:19:54;10.90;91.80